Scarborough, United Kingdom
Current Conditions -  °F | °C
As of 1:50 PM on Wednesday 26 Nov 2014 (Local Time) from EGXV Reporting Station
Broken Clouds Broken Clouds  
Wind Chill: 44°   Ceiling: 2400
Heat Index: 46°   Visibility: 6mi
Dew Point: 45°   Wind: 5mph
Humidity: 93%   Direction: 80°E
Pressure: 29.85"   Gusts: NA
Location:  54.28°N, 0.4°W
Report Text: EGXV 261350Z AUTO 08004KT 9999 FEW016/// BKN024/// 08/07 Q1011
Loading
Personal Weather Stations






























Interactive Weather Map New forecast layout! Learn more

10-Day Weather Forecast

Advertisements
Track Severe Weather on mobile